Current Conditions
Mostly Cloudy
Conditions



Pressure
1009.82 (hPa) - 29.82 (inHG)
Visibility

6.0 (miles) - 9.7 (km)
Temperature
8  °C
Temperature
5  °C
Dewpoint
82  %
 Humidity
Wind Speed
12  mph
10  kts
19  km/h
5.4  m/s
Wind Direction
N
45°
E
90°
135°
S
180°
225°
W
270°
315°
 300°

West North
West
Airport Data
EGCC
Manchester Airport
Metar :EGCC 160320Z AUTO 30010KT 9999 BKN015 08/05 Q1010 TEMPO BKN014
Tue 16th April 04:20 am
Raw Metar Info
Raw METAR is the most common format in the world for the transmission of observational weather data. It is highly standardized through the International Civil Aviation Organization (ICAO), which allows it to be understood throughout most of the world.
API Info
Data Provided by
https://www.checkwx.com/weather/EGCC

Aviation Weather providing METAR, TAF, AIRMET, SIGMET and OUTLOOK Weather Reports
© Info
CSS/SVG/PHP scripts were developed by weather34.com for use in the weather34 template © 2015-2024

Guide Info provided by Metar-Wikipedia